Time;durP1;ratioP1;P1;durP2;ratioP2;P2;SDS_P1;SDS_P2;PMS_P1;PMS_P2;Temp;Humidity;BMP_temperature;BMP_pressure;BME280_temperature;BME280_humidity;BME280_pressure;Samples;Min_cycle;Max_cycle;Signal;HPM_P1;HPM_P2
2023/02/08 00:00:41;;;;;;;0.70;0.40;;;;;;;;;;4152312;28;20057;-44
2023/02/08 00:02:43;;;;;;;1.10;0.20;;;;;;;;;;4152727;28;20417;-45
2023/02/08 00:04:44;;;;;;;0.43;0.32;;;;;;;;;;4146326;28;20058;-44
2023/02/08 00:06:45;;;;;;;0.45;0.30;;;;;;;;;;4133681;28;20112;-42
2023/02/08 00:08:47;;;;;;;1.40;0.50;;;;;;;;;;4146579;28;20053;-46
2023/02/08 00:10:48;;;;;;;0.90;0.50;;;;;;;;;;4146796;28;20568;-43
2023/02/08 00:12:53;;;;;;;1.13;0.40;;;;;;;;;;4146280;28;20061;-47
2023/02/08 00:14:54;;;;;;;0.73;0.35;;;;;;;;;;4146254;28;20061;-44
2023/02/08 00:16:55;;;;;;;1.30;0.63;;;;;;;;;;4146471;28;20291;-43
2023/02/08 00:18:57;;;;;;;0.85;0.40;;;;;;;;;;4145883;28;20081;-43
2023/02/08 00:20:58;;;;;;;0.63;0.40;;;;;;;;;;4146984;28;20410;-44
2023/02/08 00:23:00;;;;;;;1.65;0.43;;;;;;;;;;4128975;28;20112;-43
2023/02/08 00:25:01;;;;;;;0.63;0.35;;;;;;;;;;4146716;28;20477;-43
2023/02/08 00:27:02;;;;;;;2.45;0.43;;;;;;;;;;4146424;28;20053;-43
2023/02/08 00:29:04;;;;;;;0.90;0.45;;;;;;;;;;4146432;28;20058;-45
2023/02/08 00:31:06;;;;;;;0.50;0.30;;;;;;;;;;4146109;28;20054;-44
2023/02/08 00:33:09;;;;;;;1.02;0.68;;;;;;;;;;4147295;28;20062;-45
2023/02/08 00:35:11;;;;;;;1.52;0.68;;;;;;;;;;4116589;28;20059;-43
2023/02/08 00:37:12;;;;;;;0.68;0.25;;;;;;;;;;4132300;28;20070;-44
2023/02/08 00:39:13;;;;;;;1.55;0.50;;;;;;;;;;4149462;28;20485;-46
2023/02/08 00:41:15;;;;;;;0.63;0.40;;;;;;;;;;4119243;28;20058;-44
2023/02/08 00:43:17;;;;;;;1.02;0.28;;;;;;;;;;4149324;28;20054;-44
2023/02/08 00:45:18;;;;;;;1.02;0.52;;;;;;;;;;4149733;28;20133;-44
2023/02/08 00:47:20;;;;;;;1.92;0.47;;;;;;;;;;4132060;28;20050;-43
2023/02/08 00:49:22;;;;;;;1.30;0.40;;;;;;;;;;4131102;28;20446;-48
2023/02/08 00:51:23;;;;;;;1.42;0.47;;;;;;;;;;4149690;28;20100;-44
2023/02/08 00:53:24;;;;;;;1.05;0.40;;;;;;;;;;4149181;28;20061;-44
2023/02/08 00:55:26;;;;;;;1.20;0.30;;;;;;;;;;4149365;28;20408;-44
2023/02/08 00:57:27;;;;;;;0.93;0.43;;;;;;;;;;4149189;28;20115;-43
2023/02/08 00:59:28;;;;;;;0.75;0.30;;;;;;;;;;4155336;28;20073;-45
2023/02/08 01:01:29;;;;;;;0.63;0.30;;;;;;;;;;4149355;28;20050;-44
2023/02/08 01:03:36;;;;;;;1.88;0.50;;;;;;;;;;4148982;28;20611;-43
2023/02/08 01:05:37;;;;;;;2.03;0.50;;;;;;;;;;4149064;28;20540;-44
2023/02/08 01:07:39;;;;;;;0.98;0.50;;;;;;;;;;4131815;28;20058;-44
2023/02/08 01:09:40;;;;;;;0.93;0.40;;;;;;;;;;4131668;28;20058;-42
2023/02/08 01:11:42;;;;;;;1.45;0.45;;;;;;;;;;4148954;28;20061;-43
2023/02/08 01:13:43;;;;;;;1.50;0.30;;;;;;;;;;4114959;28;20059;-45
2023/02/08 01:15:44;;;;;;;0.50;0.30;;;;;;;;;;4118678;28;20086;-43
2023/02/08 01:17:46;;;;;;;1.67;0.38;;;;;;;;;;4148889;28;20489;-42
2023/02/08 01:19:47;;;;;;;0.60;0.40;;;;;;;;;;4114830;28;20054;-42
2023/02/08 01:21:49;;;;;;;0.65;0.40;;;;;;;;;;4148908;28;20485;-46
2023/02/08 01:23:51;;;;;;;0.98;0.32;;;;;;;;;;4131169;28;20054;-46
2023/02/08 01:25:52;;;;;;;0.85;0.55;;;;;;;;;;4148818;28;20064;-45
2023/02/08 01:27:56;;;;;;;1.95;0.52;;;;;;;;;;4148905;28;20050;-45
2023/02/08 01:29:57;;;;;;;2.25;0.40;;;;;;;;;;4148662;28;20064;-45
2023/02/08 01:31:58;;;;;;;1.00;0.40;;;;;;;;;;4148417;28;20049;-44
2023/02/08 01:34:00;;;;;;;0.77;0.47;;;;;;;;;;4130859;28;20050;-43
2023/02/08 01:36:03;;;;;;;0.80;0.38;;;;;;;;;;4148683;28;20054;-46
2023/02/08 01:38:04;;;;;;;1.52;0.50;;;;;;;;;;4099491;28;20047;-41
2023/02/08 01:40:06;;;;;;;1.17;0.50;;;;;;;;;;4128842;28;20062;-42
2023/02/08 01:42:15;;;;;;;1.45;0.35;;;;;;;;;;4148849;28;20054;-42
2023/02/08 01:44:18;;;;;;;0.80;0.30;;;;;;;;;;4130517;28;20106;-42
2023/02/08 01:46:21;;;;;;;0.88;0.40;;;;;;;;;;4148410;28;20100;-44
2023/02/08 01:48:35;;;;;;;0.80;0.40;;;;;;;;;;4130393;28;20132;-43
2023/02/08 01:50:46;;;;;;;0.55;0.30;;;;;;;;;;4148828;28;20108;-44
2023/02/08 01:52:48;;;;;;;1.30;0.43;;;;;;;;;;4131170;28;20139;-44
2023/02/08 01:55:02;;;;;;;0.75;0.38;;;;;;;;;;4130648;28;20501;-43
2023/02/08 01:57:04;;;;;;;1.40;0.50;;;;;;;;;;4131254;28;20100;-42
2023/02/08 01:59:10;;;;;;;2.63;0.30;;;;;;;;;;4114605;28;20454;-48
2023/02/08 02:01:12;;;;;;;1.90;0.32;;;;;;;;;;4114909;28;20062;-44
2023/02/08 02:03:14;;;;;;;0.98;0.30;;;;;;;;;;4130255;28;20498;-42
2023/02/08 02:05:16;;;;;;;1.10;0.40;;;;;;;;;;4114883;28;20065;-45
2023/02/08 02:07:19;;;;;;;1.30;0.50;;;;;;;;;;4148156;28;20050;-44
2023/02/08 02:09:40;;;;;;;1.67;0.47;;;;;;;;;;4130947;28;20050;-43
2023/02/08 02:11:42;;;;;;;1.85;0.50;;;;;;;;;;4118891;28;20050;-42
2023/02/08 02:13:43;;;;;;;0.32;0.22;;;;;;;;;;4117493;28;20588;-42
2023/02/08 02:15:44;;;;;;;1.45;0.40;;;;;;;;;;4148118;28;20103;-43
2023/02/08 02:17:46;;;;;;;0.73;0.40;;;;;;;;;;4148312;28;20424;-47
2023/02/08 02:19:59;;;;;;;1.48;0.40;;;;;;;;;;4117059;28;20090;-43
2023/02/08 02:22:38;;;;;;;0.73;0.40;;;;;;;;;;4130669;28;20137;-43
2023/02/08 02:25:02;;;;;;;2.22;0.47;;;;;;;;;;4147913;28;20057;-42
2023/02/08 02:27:16;;;;;;;0.68;0.30;;;;;;;;;;4130652;28;20505;-42
2023/02/08 02:29:30;;;;;;;0.30;0.20;;;;;;;;;;4130120;28;20490;-44
2023/02/08 02:31:47;;;;;;;1.20;0.43;;;;;;;;;;4147848;28;20409;-44
2023/02/08 02:33:56;;;;;;;1.58;0.30;;;;;;;;;;4130256;28;20062;-43
2023/02/08 02:35:59;;;;;;;2.90;0.75;;;;;;;;;;4147542;28;20057;-42
2023/02/08 02:38:11;;;;;;;0.93;0.40;;;;;;;;;;4130425;28;20058;-44
2023/02/08 02:40:23;;;;;;;1.35;0.50;;;;;;;;;;4147696;28;20575;-45
2023/02/08 02:45:34;;;;;;;1.52;0.50;;;;;;;;;;4124259;28;20482;-44
2023/02/08 02:47:48;;;;;;;0.85;0.40;;;;;;;;;;4146590;28;20058;-45
2023/02/08 02:49:53;;;;;;;0.65;0.35;;;;;;;;;;4129886;28;20108;-47
2023/02/08 02:52:00;;;;;;;1.85;0.60;;;;;;;;;;4147864;28;20184;-43
2023/02/08 02:54:20;;;;;;;0.85;0.40;;;;;;;;;;4129802;28;20061;-44
2023/02/08 02:56:23;;;;;;;0.73;0.45;;;;;;;;;;4147257;28;20654;-44
2023/02/08 02:58:26;;;;;;;1.38;0.45;;;;;;;;;;4141112;28;20062;-43
2023/02/08 03:00:30;;;;;;;0.68;0.40;;;;;;;;;;4129920;28;20046;-44
2023/02/08 03:02:31;;;;;;;1.00;0.40;;;;;;;;;;4123466;28;20109;-42
2023/02/08 03:04:32;;;;;;;0.30;0.30;;;;;;;;;;4146947;28;20137;-43
2023/02/08 03:06:34;;;;;;;1.48;0.40;;;;;;;;;;4146394;28;20096;-43
2023/02/08 03:09:17;;;;;;;0.63;0.25;;;;;;;;;;4147292;28;20072;-42
2023/02/08 03:11:22;;;;;;;0.80;0.50;;;;;;;;;;4094430;29;20059;-46
2023/02/08 03:13:36;;;;;;;0.55;0.30;;;;;;;;;;4096658;29;20121;-45
2023/02/08 03:15:37;;;;;;;0.98;0.38;;;;;;;;;;4093655;28;20066;-42
2023/02/08 03:17:59;;;;;;;0.82;0.38;;;;;;;;;;4147270;28;20085;-42
2023/02/08 03:20:05;;;;;;;1.05;0.30;;;;;;;;;;4142678;28;20088;-42
2023/02/08 03:22:13;;;;;;;1.00;0.55;;;;;;;;;;4147259;28;20058;-42
2023/02/08 03:24:23;;;;;;;0.95;0.40;;;;;;;;;;4146937;28;20460;-42
2023/02/08 03:26:36;;;;;;;0.50;0.40;;;;;;;;;;4140223;28;20089;-43
2023/02/08 03:29:07;;;;;;;1.48;0.40;;;;;;;;;;4129257;28;20085;-42
2023/02/08 03:31:09;;;;;;;0.75;0.47;;;;;;;;;;4129818;28;20050;-43
2023/02/08 03:33:44;;;;;;;1.30;0.47;;;;;;;;;;4146511;28;20057;-42
2023/02/08 03:35:51;;;;;;;0.73;0.40;;;;;;;;;;4110579;28;20053;-42
2023/02/08 03:38:06;;;;;;;1.15;0.30;;;;;;;;;;4141035;28;20460;-46
2023/02/08 03:40:16;;;;;;;0.75;0.35;;;;;;;;;;4129097;28;20410;-43
2023/02/08 03:42:18;;;;;;;;;;;;;;;;;;4130040;28;20096;-44
2023/02/08 03:44:24;;;;;;;2.75;0.32;;;;;;;;;;4129173;28;19995;-44
2023/02/08 03:46:36;;;;;;;0.82;0.32;;;;;;;;;;4145610;28;20053;-42
2023/02/08 03:48:40;;;;;;;0.98;0.30;;;;;;;;;;4129286;28;20050;-44
2023/02/08 03:50:43;;;;;;;1.30;0.50;;;;;;;;;;4129170;28;20077;-44
2023/02/08 03:52:47;;;;;;;1.40;0.50;;;;;;;;;;4146959;28;20050;-43
2023/02/08 03:55:03;;;;;;;0.57;0.30;;;;;;;;;;4146720;28;20058;-42
2023/02/08 03:57:14;;;;;;;0.57;0.40;;;;;;;;;;4129380;28;20058;-43
2023/02/08 03:59:21;;;;;;;1.75;0.20;;;;;;;;;;4123561;28;20449;-42
2023/02/08 04:01:31;;;;;;;0.63;0.40;;;;;;;;;;4129186;28;20098;-42
2023/02/08 04:03:32;;;;;;;0.88;0.55;;;;;;;;;;4128758;28;20497;-43
2023/02/08 04:05:34;;;;;;;0.95;0.50;;;;;;;;;;4146503;28;20050;-44
2023/02/08 04:07:35;;;;;;;0.77;0.40;;;;;;;;;;4113288;28;20103;-43
2023/02/08 04:09:36;;;;;;;1.20;0.60;;;;;;;;;;4116144;28;20058;-43
2023/02/08 04:11:38;;;;;;;1.02;0.30;;;;;;;;;;4149236;28;20080;-43
2023/02/08 04:13:39;;;;;;;0.60;0.30;;;;;;;;;;4149197;28;20113;-43
2023/02/08 04:15:42;;;;;;;1.08;0.43;;;;;;;;;;4149913;28;20093;-44
2023/02/08 04:17:44;;;;;;;1.35;0.40;;;;;;;;;;4149827;28;20058;-44
2023/02/08 04:19:46;;;;;;;1.20;0.45;;;;;;;;;;4149931;28;20058;-45
2023/02/08 04:21:47;;;;;;;0.70;0.30;;;;;;;;;;4149790;28;20088;-44
2023/02/08 04:23:49;;;;;;;1.30;0.38;;;;;;;;;;4132321;28;20054;-42
2023/02/08 04:25:50;;;;;;;0.85;0.35;;;;;;;;;;4149708;28;20464;-43
2023/02/08 04:27:51;;;;;;;1.13;0.55;;;;;;;;;;4132340;28;20101;-44
2023/02/08 04:29:53;;;;;;;0.70;0.43;;;;;;;;;;4149810;28;20049;-43
2023/02/08 04:31:54;;;;;;;1.58;0.30;;;;;;;;;;4149479;28;20046;-42
2023/02/08 04:33:55;;;;;;;1.55;0.32;;;;;;;;;;4149104;28;20061;-44
2023/02/08 04:35:56;;;;;;;0.73;0.30;;;;;;;;;;4132181;28;20438;-42
2023/02/08 04:37:58;;;;;;;1.92;0.40;;;;;;;;;;4149556;28;20157;-42
2023/02/08 04:39:59;;;;;;;1.00;0.40;;;;;;;;;;4149202;28;20409;-45
2023/02/08 04:42:00;;;;;;;2.28;0.57;;;;;;;;;;4149483;28;20046;-42
2023/02/08 04:44:01;;;;;;;1.15;0.40;;;;;;;;;;4149112;28;20058;-42
2023/02/08 04:46:03;;;;;;;1.02;0.40;;;;;;;;;;4149703;28;20099;-42
2023/02/08 04:48:06;;;;;;;0.73;0.32;;;;;;;;;;4131971;28;20054;-43
2023/02/08 04:50:07;;;;;;;0.85;0.30;;;;;;;;;;4149457;28;20317;-43
2023/02/08 04:52:08;;;;;;;0.85;0.38;;;;;;;;;;4149176;28;20083;-42
2023/02/08 04:54:09;;;;;;;1.35;0.47;;;;;;;;;;4149191;28;20058;-43
2023/02/08 04:56:11;;;;;;;0.88;0.43;;;;;;;;;;4131759;28;20160;-42
2023/02/08 04:58:12;;;;;;;0.93;0.45;;;;;;;;;;4149107;28;20108;-45
2023/02/08 05:00:14;;;;;;;0.75;0.40;;;;;;;;;;4148034;28;20050;-45
2023/02/08 05:02:16;;;;;;;0.75;0.28;;;;;;;;;;4149025;28;20087;-42
2023/02/08 05:04:17;;;;;;;0.98;0.65;;;;;;;;;;4148670;28;20054;-43
2023/02/08 05:06:18;;;;;;;0.57;0.30;;;;;;;;;;4149291;28;20054;-42
2023/02/08 05:08:20;;;;;;;1.10;0.25;;;;;;;;;;4148877;28;20065;-44
2023/02/08 05:10:21;;;;;;;1.00;0.38;;;;;;;;;;4148991;28;20104;-43
2023/02/08 05:12:24;;;;;;;0.73;0.40;;;;;;;;;;4148838;28;20054;-43
2023/02/08 05:14:25;;;;;;;0.65;0.40;;;;;;;;;;4148642;28;20497;-43
2023/02/08 05:16:26;;;;;;;0.60;0.30;;;;;;;;;;4149508;28;20061;-46
2023/02/08 05:18:27;;;;;;;0.80;0.50;;;;;;;;;;4130878;28;20518;-44
2023/02/08 05:20:32;;;;;;;0.70;0.40;;;;;;;;;;4147867;28;20066;-43
2023/02/08 05:22:34;;;;;;;0.63;0.40;;;;;;;;;;4145753;28;20054;-43
2023/02/08 05:24:35;;;;;;;0.73;0.47;;;;;;;;;;4148500;28;20058;-45
2023/02/08 05:26:38;;;;;;;0.93;0.52;;;;;;;;;;4148708;28;20057;-42
2023/02/08 05:28:40;;;;;;;0.95;0.52;;;;;;;;;;4092511;28;20071;-42
2023/02/08 05:30:41;;;;;;;1.38;0.30;;;;;;;;;;4148881;28;20114;-44
2023/02/08 05:32:43;;;;;;;0.93;0.35;;;;;;;;;;4148576;28;20437;-44
2023/02/08 05:34:44;;;;;;;1.35;0.40;;;;;;;;;;4147310;28;20050;-43
2023/02/08 05:36:46;;;;;;;1.27;0.50;;;;;;;;;;4148359;28;20054;-44
2023/02/08 05:38:47;;;;;;;1.00;0.40;;;;;;;;;;4148462;28;20058;-42
2023/02/08 05:40:49;;;;;;;0.70;0.40;;;;;;;;;;4148238;28;20076;-43
2023/02/08 05:42:50;;;;;;;1.15;0.40;;;;;;;;;;4148926;28;20054;-44
2023/02/08 05:44:52;;;;;;;1.35;0.38;;;;;;;;;;4131117;28;20062;-44
2023/02/08 05:46:54;;;;;;;0.88;0.63;;;;;;;;;;4115182;28;20451;-45
2023/02/08 05:48:55;;;;;;;2.10;0.40;;;;;;;;;;4130275;28;20536;-41
2023/02/08 05:50:56;;;;;;;0.82;0.35;;;;;;;;;;4131091;28;20481;-43
2023/02/08 05:52:57;;;;;;;1.25;0.60;;;;;;;;;;4148494;28;20452;-42
2023/02/08 05:54:58;;;;;;;1.85;0.52;;;;;;;;;;4142766;28;20049;-43
2023/02/08 05:57:00;;;;;;;1.40;0.60;;;;;;;;;;4148306;28;20058;-42
2023/02/08 05:59:02;;;;;;;3.90;0.55;;;;;;;;;;4147939;28;20062;-43
2023/02/08 06:01:11;;;;;;;1.52;0.57;;;;;;;;;;4143868;28;20057;-43
2023/02/08 06:03:13;;;;;;;1.52;0.50;;;;;;;;;;4139196;28;20049;-44
2023/02/08 06:05:15;;;;;;;1.27;0.63;;;;;;;;;;4146058;28;20521;-43
2023/02/08 06:07:16;;;;;;;1.50;0.60;;;;;;;;;;4145907;28;20552;-46
2023/02/08 06:09:17;;;;;;;1.88;0.65;;;;;;;;;;4146366;28;20188;-43
2023/02/08 06:11:19;;;;;;;0.98;0.73;;;;;;;;;;4145894;28;20058;-44
2023/02/08 06:13:21;;;;;;;1.45;0.70;;;;;;;;;;4127955;28;20112;-45
2023/02/08 06:15:22;;;;;;;0.60;0.50;;;;;;;;;;4128542;28;20525;-43
2023/02/08 06:17:24;;;;;;;2.45;0.50;;;;;;;;;;4112642;28;20054;-43
2023/02/08 06:19:25;;;;;;;1.80;0.57;;;;;;;;;;4128910;28;20065;-44
2023/02/08 06:21:27;;;;;;;1.88;0.98;;;;;;;;;;4129702;28;20054;-43
2023/02/08 06:23:28;;;;;;;1.25;0.63;;;;;;;;;;4129449;28;20054;-45
2023/02/08 06:25:30;;;;;;;2.38;0.75;;;;;;;;;;4128181;28;20631;-44
2023/02/08 06:27:31;;;;;;;2.95;0.75;;;;;;;;;;4129561;28;20109;-46
2023/02/08 06:29:32;;;;;;;1.10;0.68;;;;;;;;;;4129479;28;20465;-46
2023/02/08 06:31:35;;;;;;;1.02;0.60;;;;;;;;;;4129513;28;20050;-44
2023/02/08 06:33:36;;;;;;;1.02;0.50;;;;;;;;;;4127682;28;20521;-43
2023/02/08 06:35:37;;;;;;;2.60;0.73;;;;;;;;;;4129722;28;20065;-44
2023/02/08 06:37:39;;;;;;;1.60;0.75;;;;;;;;;;4119518;28;20059;-43
2023/02/08 06:39:40;;;;;;;2.38;0.70;;;;;;;;;;4128299;28;20149;-44
2023/02/08 06:41:42;;;;;;;1.40;0.73;;;;;;;;;;4129360;28;20483;-45
2023/02/08 06:43:43;;;;;;;2.22;1.00;;;;;;;;;;4128071;28;20065;-43
2023/02/08 06:45:45;;;;;;;5.25;0.93;;;;;;;;;;4112113;28;20118;-42
2023/02/08 06:47:46;;;;;;;3.05;0.90;;;;;;;;;;4129365;28;20058;-44
2023/02/08 06:49:48;;;;;;;3.03;0.55;;;;;;;;;;4127229;28;20514;-45
2023/02/08 06:51:49;;;;;;;3.28;1.00;;;;;;;;;;4127872;28;20497;-43
2023/02/08 06:53:51;;;;;;;3.05;0.90;;;;;;;;;;4121023;28;20413;-43
2023/02/08 06:55:52;;;;;;;2.78;1.00;;;;;;;;;;4129261;28;20058;-45
2023/02/08 06:57:54;;;;;;;2.05;0.75;;;;;;;;;;4127741;28;20058;-43
2023/02/08 06:59:55;;;;;;;2.60;0.70;;;;;;;;;;4129121;28;20096;-45
2023/02/08 07:01:56;;;;;;;2.22;0.80;;;;;;;;;;4128871;28;20108;-43
2023/02/08 07:03:57;;;;;;;4.53;1.10;;;;;;;;;;4125074;28;20058;-44
2023/02/08 07:05:58;;;;;;;4.53;1.00;;;;;;;;;;4125689;28;20054;-44
2023/02/08 07:07:59;;;;;;;4.80;1.13;;;;;;;;;;4122846;28;20062;-44
2023/02/08 07:10:01;;;;;;;3.78;1.08;;;;;;;;;;4120089;28;20100;-45
2023/02/08 07:12:04;;;;;;;2.78;0.90;;;;;;;;;;4117011;28;20117;-48
2023/02/08 07:14:05;;;;;;;2.65;0.90;;;;;;;;;;4137030;28;20271;-43
2023/02/08 07:16:08;;;;;;;4.43;0.80;;;;;;;;;;4135747;28;20053;-44
2023/02/08 07:18:09;;;;;;;5.43;1.20;;;;;;;;;;4126163;28;20069;-42
2023/02/08 07:20:10;;;;;;;3.72;1.08;;;;;;;;;;4115278;28;20088;-44
2023/02/08 07:22:12;;;;;;;3.65;1.10;;;;;;;;;;4135687;28;20058;-43
2023/02/08 07:24:13;;;;;;;6.43;1.13;;;;;;;;;;4137917;28;20108;-43
2023/02/08 07:26:14;;;;;;;4.78;1.17;;;;;;;;;;4134172;28;20076;-44
2023/02/08 07:28:16;;;;;;;3.70;0.90;;;;;;;;;;4123439;28;20057;-46
2023/02/08 07:30:18;;;;;;;4.75;1.20;;;;;;;;;;4112754;28;20505;-43
2023/02/08 07:32:19;;;;;;;3.53;0.93;;;;;;;;;;4132185;28;20057;-44
2023/02/08 07:34:21;;;;;;;7.63;1.33;;;;;;;;;;4126966;28;20050;-43
2023/02/08 07:36:22;;;;;;;5.60;1.20;;;;;;;;;;4122137;28;20057;-43
2023/02/08 07:38:24;;;;;;;5.78;1.17;;;;;;;;;;4129481;28;21013;-43
2023/02/08 07:40:25;;;;;;;4.53;1.40;;;;;;;;;;4131368;28;20100;-43
2023/02/08 07:42:26;;;;;;;4.13;1.25;;;;;;;;;;4098230;28;20065;-47
2023/02/08 07:44:39;;;;;;;2.28;0.75;;;;;;;;;;4117223;28;20065;-44
2023/02/08 07:46:41;;;;;;;2.20;0.90;;;;;;;;;;4123966;28;20522;-45
2023/02/08 07:48:42;;;;;;;3.20;0.95;;;;;;;;;;4127142;28;20058;-44
2023/02/08 07:50:44;;;;;;;1.58;1.02;;;;;;;;;;4132706;28;20414;-48
2023/02/08 07:52:46;;;;;;;2.10;0.98;;;;;;;;;;4136171;28;20111;-43
2023/02/08 07:54:47;;;;;;;2.10;1.10;;;;;;;;;;4131403;28;21001;-42
2023/02/08 07:56:49;;;;;;;6.05;1.10;;;;;;;;;;4126946;28;20425;-45
2023/02/08 07:58:50;;;;;;;4.90;0.90;;;;;;;;;;4131850;28;20054;-43
2023/02/08 08:00:51;;;;;;;2.45;0.90;;;;;;;;;;4120023;28;20057;-44
2023/02/08 08:02:53;;;;;;;2.88;0.77;;;;;;;;;;4125587;28;20430;-45
2023/02/08 08:04:54;;;;;;;3.53;0.95;;;;;;;;;;4110448;28;20057;-45
2023/02/08 08:06:55;;;;;;;3.20;1.38;;;;;;;;;;4121098;28;20058;-47
2023/02/08 08:08:57;;;;;;;1.88;1.20;;;;;;;;;;4111950;28;20502;-48
2023/02/08 08:10:58;;;;;;;5.05;0.90;;;;;;;;;;4111332;28;20123;-48
2023/02/08 08:12:59;;;;;;;5.63;0.73;;;;;;;;;;4120737;28;20081;-45
2023/02/08 08:15:01;;;;;;;4.18;1.15;;;;;;;;;;4117375;28;20058;-45
2023/02/08 08:17:02;;;;;;;2.03;0.70;;;;;;;;;;4099145;28;20059;-48
2023/02/08 08:19:03;;;;;;;3.15;1.02;;;;;;;;;;4118652;28;20502;-45
2023/02/08 08:21:05;;;;;;;1.50;0.70;;;;;;;;;;4122266;28;20145;-46
2023/02/08 08:23:07;;;;;;;1.35;0.75;;;;;;;;;;4116970;28;20607;-44
2023/02/08 08:25:08;;;;;;;3.58;1.13;;;;;;;;;;4123710;28;20053;-45
2023/02/08 08:27:10;;;;;;;1.42;0.63;;;;;;;;;;4121553;28;20136;-48
2023/02/08 08:29:12;;;;;;;4.68;1.13;;;;;;;;;;4100329;28;20811;-47
2023/02/08 08:31:16;;;;;;;2.28;0.80;;;;;;;;;;4120878;28;20528;-47
2023/02/08 08:33:17;;;;;;;1.42;0.60;;;;;;;;;;4099717;28;20552;-47
2023/02/08 08:35:18;;;;;;;2.90;0.80;;;;;;;;;;4119242;28;21862;-45
2023/02/08 08:37:19;;;;;;;1.85;0.73;;;;;;;;;;4101844;28;20124;-46
2023/02/08 08:39:21;;;;;;;1.52;0.80;;;;;;;;;;4122099;28;20661;-47
2023/02/08 08:41:26;;;;;;;2.33;0.70;;;;;;;;;;4121319;28;20470;-48
2023/02/08 08:43:27;;;;;;;1.23;0.70;;;;;;;;;;4108725;28;20069;-49
2023/02/08 08:45:28;;;;;;;2.30;0.73;;;;;;;;;;4084619;28;20588;-47
2023/02/08 08:47:29;;;;;;;4.68;0.80;;;;;;;;;;4105930;28;20128;-46
2023/02/08 08:49:31;;;;;;;1.80;0.80;;;;;;;;;;4118715;28;20054;-46
2023/02/08 08:51:34;;;;;;;2.83;0.68;;;;;;;;;;4099970;28;20085;-43
2023/02/08 08:53:36;;;;;;;3.30;0.80;;;;;;;;;;4116705;28;20058;-45
2023/02/08 08:55:37;;;;;;;2.25;0.40;;;;;;;;;;4118828;28;20551;-47
2023/02/08 08:57:38;;;;;;;1.33;0.80;;;;;;;;;;4109882;28;20057;-45
2023/02/08 08:59:39;;;;;;;1.45;0.50;;;;;;;;;;4108508;28;20295;-48
2023/02/08 09:01:41;;;;;;;4.03;1.00;;;;;;;;;;4083125;28;20105;-46
2023/02/08 09:03:42;;;;;;;1.90;0.55;;;;;;;;;;4115069;28;20058;-45
2023/02/08 09:05:45;;;;;;;2.78;0.82;;;;;;;;;;4118984;28;20062;-46
2023/02/08 09:07:47;;;;;;;2.85;0.60;;;;;;;;;;4117055;28;21608;-45
2023/02/08 09:09:48;;;;;;;7.35;0.80;;;;;;;;;;4116918;28;20646;-46
2023/02/08 09:11:49;;;;;;;2.55;0.80;;;;;;;;;;4122974;28;20065;-47
2023/02/08 09:13:54;;;;;;;1.85;0.68;;;;;;;;;;4109517;28;20667;-45
2023/02/08 09:15:55;;;;;;;1.20;0.52;;;;;;;;;;4101611;28;20109;-45
2023/02/08 09:17:56;;;;;;;1.48;0.75;;;;;;;;;;4122249;28;20083;-49
2023/02/08 09:19:58;;;;;;;2.60;0.70;;;;;;;;;;4121704;28;20485;-45
2023/02/08 09:21:59;;;;;;;1.70;0.73;;;;;;;;;;4121860;28;20116;-47
2023/02/08 09:24:01;;;;;;;2.33;0.85;;;;;;;;;;4105732;28;20116;-46
2023/02/08 09:26:07;;;;;;;1.35;0.70;;;;;;;;;;4116753;28;20061;-47
2023/02/08 09:28:08;;;;;;;1.27;0.70;;;;;;;;;;4114234;28;20053;-47
2023/02/08 09:30:10;;;;;;;2.03;0.70;;;;;;;;;;4115747;28;20132;-47
2023/02/08 09:32:11;;;;;;;2.25;0.65;;;;;;;;;;4121643;28;20103;-48
2023/02/08 09:34:13;;;;;;;2.08;0.90;;;;;;;;;;4111715;28;21167;-48
2023/02/08 09:36:15;;;;;;;1.00;0.70;;;;;;;;;;4098628;28;20065;-48
2023/02/08 09:38:16;;;;;;;1.30;0.77;;;;;;;;;;4108430;28;20529;-50
2023/02/08 09:40:23;;;;;;;5.20;0.60;;;;;;;;;;4111927;28;20084;-49
2023/02/08 09:42:33;;;;;;;1.50;0.70;;;;;;;;;;4099874;28;20055;-46
2023/02/08 09:44:52;;;;;;;2.13;0.70;;;;;;;;;;4092551;28;20157;-45
2023/02/08 09:47:00;;;;;;;2.28;0.57;;;;;;;;;;4109443;28;20464;-47
2023/02/08 09:49:04;;;;;;;1.10;0.60;;;;;;;;;;4121200;28;20054;-48
2023/02/08 09:51:22;;;;;;;2.55;0.88;;;;;;;;;;4094515;28;20096;-46
2023/02/08 09:53:31;;;;;;;1.55;0.52;;;;;;;;;;4114949;28;20152;-47
2023/02/08 09:55:43;;;;;;;1.50;0.60;;;;;;;;;;4115769;28;20518;-47
2023/02/08 09:57:45;;;;;;;2.50;1.25;;;;;;;;;;4099253;28;20058;-49
2023/02/08 09:59:56;;;;;;;1.80;0.52;;;;;;;;;;4122964;28;20407;-46
2023/02/08 10:02:13;;;;;;;1.70;0.60;;;;;;;;;;4099589;28;20114;-48
2023/02/08 10:04:21;;;;;;;5.00;0.68;;;;;;;;;;4112399;28;20058;-47
2023/02/08 10:06:23;;;;;;;2.70;0.50;;;;;;;;;;4123756;28;20054;-47
2023/02/08 10:08:26;;;;;;;4.15;0.68;;;;;;;;;;4113192;28;20651;-50
2023/02/08 10:10:48;;;;;;;2.92;0.98;;;;;;;;;;4107779;28;20104;-46
2023/02/08 10:12:59;;;;;;;1.00;0.57;;;;;;;;;;4091815;28;21131;-47
2023/02/08 10:15:00;;;;;;;3.03;0.60;;;;;;;;;;4093706;28;20066;-47
2023/02/08 10:17:09;;;;;;;1.83;1.00;;;;;;;;;;4103271;28;20069;-48
2023/02/08 10:19:26;;;;;;;2.00;0.85;;;;;;;;;;4096371;28;20553;-49
2023/02/08 10:21:46;;;;;;;1.77;0.73;;;;;;;;;;4085513;28;20157;-47
2023/02/08 10:24:03;;;;;;;2.28;0.60;;;;;;;;;;4088952;28;20482;-47
2023/02/08 10:26:39;;;;;;;1.63;0.77;;;;;;;;;;4088319;28;20553;-45
2023/02/08 10:29:02;;;;;;;0.80;0.40;;;;;;;;;;4103129;28;20054;-45
2023/02/08 10:31:34;;;;;;;2.58;0.73;;;;;;;;;;4109064;28;20124;-46
2023/02/08 10:33:45;;;;;;;1.63;0.63;;;;;;;;;;4103680;28;20094;-47
2023/02/08 10:35:49;;;;;;;1.85;0.73;;;;;;;;;;4088798;28;20160;-46
2023/02/08 10:37:51;;;;;;;2.03;0.90;;;;;;;;;;4089050;28;20162;-46
2023/02/08 10:39:53;;;;;;;3.00;0.80;;;;;;;;;;4103443;28;20144;-46
2023/02/08 10:41:54;;;;;;;1.75;0.63;;;;;;;;;;4089676;28;20494;-47
2023/02/08 10:44:38;;;;;;;3.20;1.00;;;;;;;;;;4091734;28;20147;-45
2023/02/08 10:47:24;;;;;;;2.85;0.70;;;;;;;;;;4103861;28;20136;-46
2023/02/08 10:49:39;;;;;;;1.58;0.75;;;;;;;;;;4088711;28;20113;-48
2023/02/08 10:51:41;;;;;;;0.65;0.47;;;;;;;;;;4084271;28;20086;-47
2023/02/08 10:53:42;;;;;;;1.13;0.50;;;;;;;;;;4105127;28;20469;-46
2023/02/08 10:55:45;;;;;;;1.23;0.63;;;;;;;;;;4104126;28;20506;-49
2023/02/08 10:57:48;;;;;;;2.55;0.55;;;;;;;;;;4097752;28;20447;-48
2023/02/08 11:00:08;;;;;;;1.38;0.57;;;;;;;;;;4104147;28;20054;-46
2023/02/08 11:02:16;;;;;;;;;;;;;;;;;;4084865;28;20051;-49
2023/02/08 11:04:18;;;;;;;1.48;0.60;;;;;;;;;;4074699;28;20096;-49
2023/02/08 11:06:28;;;;;;;1.35;0.50;;;;;;;;;;4094284;28;20456;-45
2023/02/08 11:08:29;;;;;;;;;;;;;;;;;;4098657;28;20117;-45
2023/02/08 11:10:31;;;;;;;0.85;0.43;;;;;;;;;;4098836;28;19930;-46
2023/02/08 11:12:32;;;;;;;1.80;0.68;;;;;;;;;;4091700;28;20047;-46
2023/02/08 11:14:38;;;;;;;1.98;0.40;;;;;;;;;;4110021;28;20181;-48
2023/02/08 11:16:40;;;;;;;1.15;0.60;;;;;;;;;;4111297;28;21526;-45
2023/02/08 11:18:54;;;;;;;1.50;0.88;;;;;;;;;;4107892;28;20059;-45
2023/02/08 11:20:58;;;;;;;1.25;0.50;;;;;;;;;;4109187;28;20586;-45
2023/02/08 11:23:00;;;;;;;1.00;0.32;;;;;;;;;;4115118;28;20134;-47
2023/02/08 11:25:05;;;;;;;2.85;1.02;;;;;;;;;;4096355;28;20770;-47
2023/02/08 11:27:27;;;;;;;1.92;0.63;;;;;;;;;;4114920;28;20121;-45
2023/02/08 11:29:29;;;;;;;0.70;0.40;;;;;;;;;;4100951;28;20061;-46
2023/02/08 11:31:31;;;;;;;1.25;0.82;;;;;;;;;;4102449;28;20054;-46
2023/02/08 11:33:32;;;;;;;2.10;0.65;;;;;;;;;;4117634;28;20078;-49
2023/02/08 11:35:35;;;;;;;1.60;0.70;;;;;;;;;;4112634;28;20062;-47
2023/02/08 11:37:36;;;;;;;0.55;0.40;;;;;;;;;;4100144;28;20059;-46
2023/02/08 11:39:39;;;;;;;1.58;0.40;;;;;;;;;;4085697;29;20062;-45
2023/02/08 11:41:45;;;;;;;0.63;0.40;;;;;;;;;;4101257;28;20050;-45
2023/02/08 11:44:06;;;;;;;1.33;0.80;;;;;;;;;;4097918;28;20399;-46
2023/02/08 11:46:09;;;;;;;1.30;0.50;;;;;;;;;;4114556;28;20065;-48
2023/02/08 11:48:20;;;;;;;0.52;0.35;;;;;;;;;;4113129;28;20108;-47
2023/02/08 11:50:30;;;;;;;0.60;0.50;;;;;;;;;;4100961;28;20105;-48
2023/02/08 11:52:37;;;;;;;1.42;0.50;;;;;;;;;;4088157;28;20196;-46
2023/02/08 11:54:40;;;;;;;1.00;0.50;;;;;;;;;;4104394;28;20134;-46
2023/02/08 11:56:41;;;;;;;0.75;0.40;;;;;;;;;;4108722;28;20093;-47
2023/02/08 11:58:58;;;;;;;3.80;0.60;;;;;;;;;;4101712;28;20061;-46
2023/02/08 12:01:05;;;;;;;2.28;1.08;;;;;;;;;;4087151;28;20082;-45
2023/02/08 12:03:12;;;;;;;0.90;0.57;;;;;;;;;;4099443;28;20136;-45
2023/02/08 12:05:16;;;;;;;2.25;0.60;;;;;;;;;;4080350;28;20141;-49
2023/02/08 12:07:42;;;;;;;1.15;0.45;;;;;;;;;;4079252;28;20103;-47
2023/02/08 12:09:57;;;;;;;1.30;0.50;;;;;;;;;;4100839;28;20050;-45
2023/02/08 12:12:04;;;;;;;0.85;0.52;;;;;;;;;;4110181;28;20097;-45
2023/02/08 12:14:15;;;;;;;2.88;0.73;;;;;;;;;;4124345;28;20096;-47
2023/02/08 12:16:24;;;;;;;1.92;0.57;;;;;;;;;;4102494;28;20090;-47
2023/02/08 12:18:42;;;;;;;1.00;0.50;;;;;;;;;;4085594;28;20055;-48
2023/02/08 12:20:45;;;;;;;0.82;0.50;;;;;;;;;;4120562;28;20080;-46
2023/02/08 12:23:20;;;;;;;2.70;0.52;;;;;;;;;;4117093;28;20054;-52
2023/02/08 12:25:48;;;;;;;1.42;0.60;;;;;;;;;;4092765;28;20058;-47
2023/02/08 12:28:14;;;;;;;1.40;0.60;;;;;;;;;;4118335;28;20680;-51
2023/02/08 12:30:30;;;;;;;1.27;0.47;;;;;;;;;;4121620;28;20062;-45
2023/02/08 12:32:51;;;;;;;1.23;0.63;;;;;;;;;;4122926;28;20054;-49